Time;durP1;ratioP1;P1;durP2;ratioP2;P2;SDS_P1;SDS_P2;PMS_P1;PMS_P2;Temp;Humidity;BMP_temperature;BMP_pressure;BME280_temperature;BME280_humidity;BME280_pressure;Samples;Min_cycle;Max_cycle;Signal;HPM_P1;HPM_P2
2022/11/16 00:01:03;;;;;;;;;;;;;;;13.27;nan;101068.47;5010664;28;19956;-33
2022/11/16 00:03:29;;;;;;;;;;;;;;;13.28;nan;101062.03;5022225;28;19941;-33
2022/11/16 00:05:55;;;;;;;;;;;;;;;13.29;nan;101063.69;5021484;28;19921;-33
2022/11/16 00:08:21;;;;;;;;;;;;;;;13.29;nan;101061.00;5022749;28;19917;-33
2022/11/16 00:10:46;;;;;;;;;;;;;;;13.28;nan;101062.03;5014589;28;19931;-33
2022/11/16 00:13:11;;;;;;;;;;;;;;;13.29;nan;101064.50;5015872;28;20468;-33
2022/11/16 00:15:37;;;;;;;;;;;;;;;13.26;nan;101051.53;5025003;28;19956;-33
2022/11/16 00:18:02;;;;;;;;;;;;;;;13.25;nan;101054.47;5017080;28;20272;-33
2022/11/16 00:20:27;;;;;;;;;;;;;;;13.25;nan;101057.16;5015445;28;19917;-33
2022/11/16 00:22:53;;;;;;;;;;;;;;;13.25;nan;101054.47;5016004;28;20562;-33
2022/11/16 00:25:18;;;;;;;;;;;;;;;13.25;nan;101057.97;5022188;28;19921;-33
2022/11/16 00:27:43;;;;;;;;;;;;;;;13.32;nan;101056.97;5023104;28;19921;-33
2022/11/16 00:30:09;;;;;;;;;;;;;;;13.33;nan;101051.31;5018344;28;19921;-33
2022/11/16 00:32:34;;;;;;;;;;;;;;;13.37;nan;101054.31;5014757;28;19932;-33
2022/11/16 00:35:00;;;;;;;;;;;;;;;13.39;nan;101054.84;5016502;28;19931;-33
2022/11/16 00:37:25;;;;;;;;;;;;;;;13.38;nan;101051.34;5017622;28;19925;-33
2022/11/16 00:39:50;;;;;;;;;;;;;;;13.38;nan;101042.47;5021620;28;19948;-33
2022/11/16 00:42:16;;;;;;;;;;;;;;;13.39;nan;101039.50;5017872;28;20352;-33
2022/11/16 00:44:41;;;;;;;;;;;;;;;13.40;nan;101034.94;5015989;28;19917;-33
2022/11/16 00:47:06;;;;;;;;;;;;;;;13.41;nan;101031.97;5020222;28;19917;-33
2022/11/16 00:49:32;;;;;;;;;;;;;;;13.40;nan;101032.25;5024254;28;19924;-33
2022/11/16 00:51:57;;;;;;;;;;;;;;;13.38;nan;101029.00;5017605;28;20063;-33
2022/11/16 00:54:23;;;;;;;;;;;;;;;13.39;nan;101028.75;5015100;28;19925;-33
2022/11/16 00:56:48;;;;;;;;;;;;;;;13.40;nan;101022.28;5014747;28;20035;-33
2022/11/16 00:59:13;;;;;;;;;;;;;;;13.43;nan;101023.66;5019830;28;21338;-33
2022/11/16 01:01:38;;;;;;;;;;;;;;;13.44;nan;101015.31;5021900;28;19921;-33
2022/11/16 01:04:04;;;;;;;;;;;;;;;13.42;nan;101017.44;5017425;28;20016;-33
2022/11/16 01:06:29;;;;;;;;;;;;;;;13.43;nan;101013.69;5016564;28;19948;-33
2022/11/16 01:08:54;;;;;;;;;;;;;;;13.43;nan;101019.06;5016376;28;19921;-33
2022/11/16 01:14:05;;;;;;;;;;;;;;;13.42;nan;101008.56;5014560;28;19936;-33
2022/11/16 01:16:30;;;;;;;;;;;;;;;13.41;nan;101015.03;5019516;28;20303;-33
2022/11/16 01:18:55;;;;;;;;;;;;;;;13.42;nan;101020.16;5015085;28;19917;-33
2022/11/16 01:21:21;;;;;;;;;;;;;;;13.40;nan;101019.59;5018313;28;20426;-33
2022/11/16 01:23:47;;;;;;;;;;;;;;;13.42;nan;101017.44;5016564;28;19918;-33
2022/11/16 01:26:12;;;;;;;;;;;;;;;13.34;nan;101009.88;5016143;28;19925;-33
2022/11/16 01:28:37;;;;;;;;;;;;;;;13.39;nan;101012.59;5010343;28;19928;-33
2022/11/16 01:31:03;;;;;;;;;;;;;;;13.39;nan;101017.97;5018006;28;19925;-33
2022/11/16 01:33:28;;;;;;;;;;;;;;;13.39;nan;101009.91;5019347;28;19917;-33
2022/11/16 01:35:54;;;;;;;;;;;;;;;13.33;nan;100997.50;5021165;28;20379;-33
2022/11/16 01:38:19;;;;;;;;;;;;;;;13.38;nan;100996.72;5013843;28;19928;-33
2022/11/16 01:40:44;;;;;;;;;;;;;;;13.37;nan;100993.22;5016735;28;20028;-33
2022/11/16 01:43:17;;;;;;;;;;;;;;;13.40;nan;100992.69;5015852;28;19978;-33
2022/11/16 01:45:42;;;;;;;;;;;;;;;13.39;nan;100993.75;5019030;28;19925;-33
2022/11/16 01:48:19;;;;;;;;;;;;;;;13.39;nan;100985.69;5017424;28;19926;-33
2022/11/16 01:50:46;;;;;;;;;;;;;;;13.39;nan;100985.69;5010884;28;19925;-33
2022/11/16 01:53:11;;;;;;;;;;;;;;;13.41;nan;100980.03;5016182;28;19956;-33
2022/11/16 01:55:37;;;;;;;;;;;;;;;13.45;nan;100979.25;5021861;28;19965;-33
2022/11/16 01:58:03;;;;;;;;;;;;;;;13.47;nan;100981.72;5020317;28;20429;-33
2022/11/16 02:00:29;;;;;;;;;;;;;;;13.48;nan;100973.38;5012727;28;19920;-33
2022/11/16 02:02:54;;;;;;;;;;;;;;;13.51;nan;100967.47;5014497;28;20429;-33
2022/11/16 02:05:21;;;;;;;;;;;;;;;13.49;nan;100966.91;5017690;28;19921;-33
2022/11/16 02:10:57;;;;;;;;;;;;;;;13.45;nan;100959.59;5017755;28;19929;-33
2022/11/16 02:13:32;;;;;;;;;;;;;;;13.49;nan;100961.53;5012805;28;19917;-33
2022/11/16 02:16:04;;;;;;;;;;;;;;;13.56;nan;100956.69;5017316;28;19917;-33
2022/11/16 02:18:32;;;;;;;;;;;;;;;13.56;nan;100958.59;5020020;28;19939;-33
2022/11/16 02:21:01;;;;;;;;;;;;;;;13.54;nan;100958.84;5022035;28;19940;-33
2022/11/16 02:23:26;;;;;;;;;;;;;;;13.56;nan;100956.69;5009747;28;20015;-33
2022/11/16 02:26:10;;;;;;;;;;;;;;;13.56;nan;100959.41;5017275;28;20140;-33
2022/11/16 02:28:55;;;;;;;;;;;;;;;13.52;nan;100952.91;5015709;28;19970;-33
2022/11/16 02:31:27;;;;;;;;;;;;;;;13.53;nan;100959.94;5002638;28;20043;-33
2022/11/16 02:33:55;;;;;;;;;;;;;;;13.54;nan;100950.78;5013368;28;19917;-33
2022/11/16 02:36:22;;;;;;;;;;;;;;;13.51;nan;100953.19;5014689;28;19921;-33
2022/11/16 02:38:54;;;;;;;;;;;;;;;13.53;nan;100951.84;5020347;28;19928;-33
2022/11/16 02:41:21;;;;;;;;;;;;;;;13.58;nan;100957.25;5017519;28;20411;-33
2022/11/16 02:43:51;;;;;;;;;;;;;;;13.60;nan;100952.41;5019620;28;19921;-33
2022/11/16 02:46:22;;;;;;;;;;;;;;;13.50;nan;100948.88;5017254;28;19932;-33
2022/11/16 02:48:50;;;;;;;;;;;;;;;13.56;nan;100953.19;5019310;28;20456;-33
2022/11/16 02:51:17;;;;;;;;;;;;;;;13.59;nan;100941.91;5014721;28;19925;-33
2022/11/16 02:54:01;;;;;;;;;;;;;;;13.54;nan;100945.38;5013005;28;19917;-33
2022/11/16 02:56:27;;;;;;;;;;;;;;;13.59;nan;100940.00;5018365;28;19963;-33
2022/11/16 02:58:53;;;;;;;;;;;;;;;13.59;nan;100942.72;5017316;28;20371;-33
2022/11/16 03:01:26;;;;;;;;;;;;;;;13.59;nan;100937.31;5015797;28;19925;-33
2022/11/16 03:03:53;;;;;;;;;;;;;;;13.60;nan;100938.13;5013839;28;20339;-33
2022/11/16 03:06:25;;;;;;;;;;;;;;;13.58;nan;100938.41;5019809;28;20126;-33
2022/11/16 03:09:00;;;;;;;;;;;;;;;13.60;nan;100938.94;5014570;28;19917;-33
2022/11/16 03:14:13;;;;;;;;;;;;;;;13.56;nan;100937.06;5016683;28;20283;-33
2022/11/16 03:16:44;;;;;;;;;;;;;;;13.59;nan;100931.94;5014861;28;20342;-33
2022/11/16 03:19:12;;;;;;;;;;;;;;;13.61;nan;100924.41;5012999;28;19971;-33
2022/11/16 03:21:37;;;;;;;;;;;;;;;13.70;nan;100930.09;5020798;28;20032;-33
2022/11/16 03:24:03;;;;;;;;;;;;;;;13.65;nan;100942.75;5016836;28;20036;-33
2022/11/16 03:26:45;;;;;;;;;;;;;;;13.57;nan;100933.28;5015633;28;20307;-33
2022/11/16 03:29:17;;;;;;;;;;;;;;;13.52;nan;100928.69;5010843;28;20007;-33
2022/11/16 03:31:47;;;;;;;;;;;;;;;13.48;nan;100924.91;5016177;28;19922;-33
2022/11/16 03:34:15;;;;;;;;;;;;;;;13.43;nan;100927.56;5020726;28;19927;-33
2022/11/16 03:36:42;;;;;;;;;;;;;;;13.50;nan;100930.03;5019633;28;19921;-33
2022/11/16 03:39:11;;;;;;;;;;;;;;;13.57;nan;100928.69;5010125;28;19921;-33
2022/11/16 03:41:38;;;;;;;;;;;;;;;13.60;nan;100927.38;5015674;28;19933;-33
2022/11/16 03:44:04;;;;;;;;;;;;;;;13.60;nan;100924.66;5014874;28;19921;-33
2022/11/16 03:46:30;;;;;;;;;;;;;;;13.52;nan;100917.94;5018052;28;19918;-33
2022/11/16 03:48:57;;;;;;;;;;;;;;;13.51;nan;100918.19;5016296;28;19917;-33
2022/11/16 03:51:22;;;;;;;;;;;;;;;13.52;nan;100920.63;5011095;28;19925;-33
2022/11/16 03:53:47;;;;;;;;;;;;;;;13.61;nan;100919.03;5019554;28;20382;-33
2022/11/16 03:56:13;;;;;;;;;;;;;;;13.68;nan;100926.88;5012628;28;20004;-33
2022/11/16 03:58:38;;;;;;;;;;;;;;;13.72;nan;100933.34;5014355;28;19932;-33
2022/11/16 04:01:04;;;;;;;;;;;;;;;13.70;nan;100932.00;5011937;28;19932;-33
2022/11/16 04:03:30;;;;;;;;;;;;;;;13.63;nan;100931.41;5015019;28;19917;-33
2022/11/16 04:25:30;;;;;;;;;;;;;;;13.57;nan;100896.41;5009798;28;20231;-33
2022/11/16 04:28:15;;;;;;;;;;;;;;;13.59;nan;100913.09;5015678;28;19931;-33
2022/11/16 04:39:00;;;;;;;;;;;;;;;13.57;nan;100895.59;5017427;28;19923;-33
2022/11/16 04:44:10;;;;;;;;;;;;;;;13.52;nan;100882.94;5019477;28;19983;-33
2022/11/16 04:49:19;;;;;;;;;;;;;;;13.54;nan;100896.94;5020274;28;20410;-33
2022/11/16 04:51:44;;;;;;;;;;;;;;;13.52;nan;100893.69;5020669;28;19925;-33
2022/11/16 04:54:10;;;;;;;;;;;;;;;13.46;nan;100897.44;5021678;28;19956;-33
2022/11/16 04:56:35;;;;;;;;;;;;;;;13.51;nan;100902.03;5012244;28;20360;-33
2022/11/16 04:59:00;;;;;;;;;;;;;;;13.54;nan;100896.94;5014405;28;21730;-33
2022/11/16 05:04:10;;;;;;;;;;;;;;;13.56;nan;100894.78;5020544;28;19923;-33
2022/11/16 05:06:35;;;;;;;;;;;;;;;13.54;nan;100894.25;5015911;28;20023;-33
2022/11/16 05:09:01;;;;;;;;;;;;;;;13.51;nan;100902.03;5013054;28;19925;-33
2022/11/16 05:11:26;;;;;;;;;;;;;;;13.48;nan;100902.56;5020332;28;19925;-33
2022/11/16 05:13:51;;;;;;;;;;;;;;;13.50;nan;100906.63;5020490;28;20342;-33
2022/11/16 05:16:17;;;;;;;;;;;;;;;13.51;nan;100908.22;5023310;28;20352;-33
2022/11/16 05:18:42;;;;;;;;;;;;;;;13.53;nan;100905.28;5010287;28;19917;-33
2022/11/16 05:21:07;;;;;;;;;;;;;;;13.53;nan;100911.47;5010842;28;19982;-33
2022/11/16 05:26:16;;;;;;;;;;;;;;;13.48;nan;100911.47;5015200;28;19968;-33
2022/11/16 05:28:42;;;;;;;;;;;;;;;13.53;nan;100913.34;5015210;28;20110;-33
2022/11/16 05:31:07;;;;;;;;;;;;;;;13.51;nan;100907.44;5012190;28;21315;-33
2022/11/16 05:33:32;;;;;;;;;;;;;;;13.52;nan;100909.84;5018543;28;19917;-33
2022/11/16 05:35:58;;;;;;;;;;;;;;;13.53;nan;100914.16;5011491;28;20492;-33
2022/11/16 05:38:23;;;;;;;;;;;;;;;13.50;nan;100912.00;5015786;28;19963;-33
2022/11/16 05:40:48;;;;;;;;;;;;;;;13.55;nan;100921.97;5015054;28;19960;-33
2022/11/16 05:43:13;;;;;;;;;;;;;;;13.60;nan;100919.28;5022069;28;20043;-33
2022/11/16 05:45:39;;;;;;;;;;;;;;;13.64;nan;100924.94;5020592;28;19944;-33
2022/11/16 05:48:04;;;;;;;;;;;;;;;13.66;nan;100920.13;5021674;28;19951;-33
2022/11/16 05:50:29;;;;;;;;;;;;;;;13.65;nan;100927.41;5021318;28;20260;-33
2022/11/16 05:52:55;;;;;;;;;;;;;;;13.66;nan;100928.22;5022152;28;19917;-33
2022/11/16 05:55:20;;;;;;;;;;;;;;;13.60;nan;100925.47;5022401;28;19921;-33
2022/11/16 05:57:45;;;;;;;;;;;;;;;13.58;nan;100927.63;5022391;28;20418;-33
2022/11/16 06:00:11;;;;;;;;;;;;;;;13.58;nan;100930.31;5021145;28;20245;-33
2022/11/16 06:02:36;;;;;;;;;;;;;;;13.62;nan;100922.53;5022562;28;20016;-33
2022/11/16 06:05:02;;;;;;;;;;;;;;;13.66;nan;100923.63;5020040;28;19925;-33
2022/11/16 06:07:27;;;;;;;;;;;;;;;13.69;nan;100928.50;5020249;28;19995;-33
2022/11/16 06:09:53;;;;;;;;;;;;;;;13.69;nan;100919.59;5024410;28;20016;-33
2022/11/16 06:12:18;;;;;;;;;;;;;;;13.66;nan;100920.13;5021575;28;21676;-34
2022/11/16 06:14:43;;;;;;;;;;;;;;;13.68;nan;100915.28;5022525;28;20438;-33
2022/11/16 06:17:13;;;;;;;;;;;;;;;13.58;nan;100910.66;5020547;28;20152;-33
2022/11/16 06:19:38;;;;;;;;;;;;;;;13.61;nan;100907.44;5022412;28;19925;-33
2022/11/16 06:22:04;;;;;;;;;;;;;;;13.63;nan;100904.50;5020814;28;19994;-33
2022/11/16 06:24:29;;;;;;;;;;;;;;;13.68;nan;100910.72;5021842;28;19975;-33
2022/11/16 06:26:54;;;;;;;;;;;;;;;13.71;nan;100912.88;5022101;28;20010;-33
2022/11/16 06:29:20;;;;;;;;;;;;;;;13.64;nan;100915.00;5021351;28;20362;-33
2022/11/16 06:31:45;;;;;;;;;;;;;;;13.60;nan;100914.72;5022599;28;19990;-33
2022/11/16 06:34:10;;;;;;;;;;;;;;;13.60;nan;100916.59;5022205;28;20338;-33
2022/11/16 06:36:36;;;;;;;;;;;;;;;13.59;nan;100921.16;5021801;28;20373;-33
2022/11/16 06:39:01;;;;;;;;;;;;;;;13.63;nan;100905.28;5019912;28;19948;-33
2022/11/16 06:41:26;;;;;;;;;;;;;;;13.53;nan;100903.41;5021165;28;19917;-33
2022/11/16 06:43:52;;;;;;;;;;;;;;;13.51;nan;100908.22;5020864;28;19917;-33
2022/11/16 06:46:17;;;;;;;;;;;;;;;13.57;nan;100901.78;5019726;28;20201;-33
2022/11/16 06:48:42;;;;;;;;;;;;;;;13.60;nan;100898.56;5022316;28;19940;-33
2022/11/16 06:51:08;;;;;;;;;;;;;;;13.64;nan;100900.72;5019687;28;19932;-33
2022/11/16 06:53:33;;;;;;;;;;;;;;;13.67;nan;100905.59;5020071;28;20539;-33
2022/11/16 06:56:00;;;;;;;;;;;;;;;13.65;nan;100896.97;5020833;28;19917;-34
2022/11/16 06:58:25;;;;;;;;;;;;;;;13.55;nan;100903.94;5021002;28;19924;-33
2022/11/16 07:00:50;;;;;;;;;;;;;;;13.51;nan;100902.84;5021042;28;20341;-33
2022/11/16 07:03:15;;;;;;;;;;;;;;;13.48;nan;100897.19;5016600;28;19921;-33
2022/11/16 07:05:41;;;;;;;;;;;;;;;13.42;nan;100890.97;5021405;28;19921;-33
2022/11/16 07:08:06;;;;;;;;;;;;;;;13.40;nan;100900.38;5017662;28;19917;-33
2022/11/16 07:10:32;;;;;;;;;;;;;;;13.45;nan;100898.50;5022236;28;19921;-33
2022/11/16 07:13:00;;;;;;;;;;;;;;;13.43;nan;100895.25;5017543;28;20032;-33
2022/11/16 07:15:25;;;;;;;;;;;;;;;13.49;nan;100898.81;5015088;28;19921;-33
2022/11/16 07:17:50;;;;;;;;;;;;;;;13.59;nan;100893.44;5017460;28;19929;-33
2022/11/16 07:20:16;;;;;;;;;;;;;;;13.67;nan;100901.03;5016859;28;19921;-33
2022/11/16 07:22:41;;;;;;;;;;;;;;;13.73;nan;100907.22;5020632;28;20367;-33
2022/11/16 07:25:07;;;;;;;;;;;;;;;13.77;nan;100908.31;5016516;28;19917;-33
2022/11/16 07:27:32;;;;;;;;;;;;;;;13.80;nan;100907.78;5020535;28;19931;-33
2022/11/16 07:29:57;;;;;;;;;;;;;;;13.82;nan;100919.94;5015572;28;19921;-33
2022/11/16 07:32:23;;;;;;;;;;;;;;;13.84;nan;100916.97;5019692;28;20012;-33
2022/11/16 07:34:48;;;;;;;;;;;;;;;13.80;nan;100919.34;5017025;28;19957;-33
2022/11/16 07:37:13;;;;;;;;;;;;;;;13.79;nan;100922.31;5018183;28;19921;-33
2022/11/16 07:39:39;;;;;;;;;;;;;;;13.78;nan;100918.81;5014243;28;19918;-33
2022/11/16 07:42:10;;;;;;;;;;;;;;;13.81;nan;100922.84;5011900;28;19921;-33
2022/11/16 07:44:35;;;;;;;;;;;;;;;13.86;nan;100928.28;5017876;28;19967;-33
2022/11/16 07:47:01;;;;;;;;;;;;;;;13.86;nan;100925.59;5014405;28;20083;-33
2022/11/16 07:49:27;;;;;;;;;;;;;;;13.82;nan;100924.47;5019505;28;20402;-34
2022/11/16 07:51:52;;;;;;;;;;;;;;;13.81;nan;100928.25;5016459;28;19937;-33
2022/11/16 07:54:17;;;;;;;;;;;;;;;13.76;nan;100928.22;5014783;28;19921;-33
2022/11/16 07:56:43;;;;;;;;;;;;;;;13.82;nan;100929.84;5018501;28;20358;-34
2022/11/16 07:59:08;;;;;;;;;;;;;;;13.86;nan;100933.66;5015356;28;19921;-33
2022/11/16 08:01:33;;;;;;;;;;;;;;;13.89;nan;100933.13;5019235;28;20479;-33
2022/11/16 08:04:00;;;;;;;;;;;;;;;13.93;nan;100933.41;5013266;28;19921;-33
2022/11/16 08:06:27;;;;;;;;;;;;;;;13.89;nan;100938.50;5015100;28;20040;-33
2022/11/16 08:08:52;;;;;;;;;;;;;;;13.93;nan;100936.91;5013896;28;19925;-33
2022/11/16 08:11:17;;;;;;;;;;;;;;;13.95;nan;100936.63;5013542;28;19936;-33
2022/11/16 08:13:43;;;;;;;;;;;;;;;14.02;nan;100935.31;5017134;28;19924;-33
2022/11/16 08:16:10;;;;;;;;;;;;;;;13.96;nan;100938.25;5020517;28;19921;-34
2022/11/16 08:18:36;;;;;;;;;;;;;;;13.85;nan;100935.53;5019646;28;19925;-33
2022/11/16 08:21:01;;;;;;;;;;;;;;;13.80;nan;100942.78;5019309;28;19936;-33
2022/11/16 08:23:27;;;;;;;;;;;;;;;13.87;nan;100943.34;5019654;28;19921;-33
2022/11/16 08:25:57;;;;;;;;;;;;;;;13.83;nan;100940.38;5021732;28;20216;-34
2022/11/16 08:28:23;;;;;;;;;;;;;;;13.88;nan;100945.78;5019970;28;19964;-33
2022/11/16 08:30:50;;;;;;;;;;;;;;;13.91;nan;100939.06;5014912;28;20364;-33
2022/11/16 08:33:16;;;;;;;;;;;;;;;13.95;nan;100948.22;5017105;28;19921;-33
2022/11/16 08:35:42;;;;;;;;;;;;;;;14.02;nan;100951.50;5021948;28;19975;-34
2022/11/16 08:38:07;;;;;;;;;;;;;;;14.07;nan;100948.00;5019825;28;19917;-33
2022/11/16 08:40:32;;;;;;;;;;;;;;;14.08;nan;100950.41;5017761;28;19925;-33
2022/11/16 08:42:58;;;;;;;;;;;;;;;14.05;nan;100945.56;5014315;28;19924;-34
2022/11/16 08:45:23;;;;;;;;;;;;;;;14.01;nan;100943.66;5017187;28;19921;-33
2022/11/16 08:47:51;;;;;;;;;;;;;;;14.01;nan;100943.66;5022360;28;20003;-33
2022/11/16 08:50:17;;;;;;;;;;;;;;;13.99;nan;100940.41;5017928;28;19980;-34
2022/11/16 08:52:42;;;;;;;;;;;;;;;14.00;nan;100942.84;5024196;28;19917;-33
2022/11/16 08:55:09;;;;;;;;;;;;;;;14.09;nan;100946.63;5023322;28;19949;-33
2022/11/16 08:57:34;;;;;;;;;;;;;;;14.06;nan;100952.56;5023700;28;19917;-33
2022/11/16 08:59:59;;;;;;;;;;;;;;;14.08;nan;100945.03;5018120;28;19928;-33
2022/11/16 09:02:24;;;;;;;;;;;;;;;13.85;nan;100943.63;5020286;28;20002;-33
2022/11/16 09:04:51;;;;;;;;;;;;;;;13.90;nan;100940.94;5019888;28;19917;-33
2022/11/16 09:07:16;;;;;;;;;;;;;;;13.98;nan;100947.69;5021245;28;19949;-33
2022/11/16 09:09:42;;;;;;;;;;;;;;;13.98;nan;100945.00;5018061;28;19976;-33
2022/11/16 09:12:07;;;;;;;;;;;;;;;13.97;nan;100945.25;5020243;28;19956;-34
2022/11/16 09:14:32;;;;;;;;;;;;;;;13.94;nan;100949.28;5017704;28;20337;-33
2022/11/16 09:16:58;;;;;;;;;;;;;;;13.99;nan;100943.91;5018722;28;19983;-33
2022/11/16 09:19:23;;;;;;;;;;;;;;;13.99;nan;100941.22;5022064;28;20411;-33
2022/11/16 09:21:49;;;;;;;;;;;;;;;13.96;nan;100949.84;5019480;28;19917;-33
2022/11/16 09:24:14;;;;;;;;;;;;;;;13.98;nan;100953.06;5019667;28;20025;-33
2022/11/16 09:26:40;;;;;;;;;;;;;;;14.01;nan;100944.47;5017785;28;19917;-33
2022/11/16 09:29:05;;;;;;;;;;;;;;;14.07;nan;100950.69;5021923;28;19924;-33
2022/11/16 09:31:31;;;;;;;;;;;;;;;14.08;nan;100955.81;5023571;28;19929;-33
2022/11/16 09:33:57;;;;;;;;;;;;;;;14.09;nan;100946.63;5018773;28;20370;-33
2022/11/16 09:36:23;;;;;;;;;;;;;;;14.10;nan;100953.66;5021942;28;19917;-33
2022/11/16 09:38:48;;;;;;;;;;;;;;;14.13;nan;100947.72;5022316;28;19927;-33
2022/11/16 09:41:13;;;;;;;;;;;;;;;14.18;nan;100946.91;5021977;28;20291;-33
2022/11/16 09:43:42;;;;;;;;;;;;;;;14.25;nan;100942.09;5019613;28;20279;-34
2022/11/16 09:46:13;;;;;;;;;;;;;;;14.26;nan;100942.91;5020713;28;19971;-34
2022/11/16 09:48:39;;;;;;;;;;;;;;;14.21;nan;100944.53;5016982;28;19917;-34
2022/11/16 09:51:07;;;;;;;;;;;;;;;14.15;nan;100940.19;5020690;28;19979;-33
2022/11/16 09:53:38;;;;;;;;;;;;;;;14.16;nan;100931.00;5020651;28;19917;-33
2022/11/16 09:56:16;;;;;;;;;;;;;;;14.17;nan;100931.81;5021188;28;19969;-34
2022/11/16 09:58:56;;;;;;;;;;;;;;;14.13;nan;100934.25;5014988;28;19924;-34
2022/11/16 10:01:27;;;;;;;;;;;;;;;14.14;nan;100927.78;5018380;28;19921;-34
2022/11/16 10:04:11;;;;;;;;;;;;;;;14.16;nan;100920.25;5017601;28;19917;-42
2022/11/16 10:06:43;;;;;;;;;;;;;;;14.12;nan;100921.84;5021758;28;19917;-34
2022/11/16 10:09:11;;;;;;;;;;;;;;;14.17;nan;100932.63;5021789;28;19917;-34
2022/11/16 10:11:45;;;;;;;;;;;;;;;14.19;nan;100930.50;5024402;28;20101;-33
2022/11/16 10:14:30;;;;;;;;;;;;;;;14.23;nan;100919.19;5019655;28;19917;-33
2022/11/16 10:16:56;;;;;;;;;;;;;;;14.26;nan;100919.44;5020817;28;20043;-33
2022/11/16 10:19:24;;;;;;;;;;;;;;;14.25;nan;100925.91;5022256;28;20004;-33
2022/11/16 10:21:59;;;;;;;;;;;;;;;14.27;nan;100914.88;5018366;28;20451;-34
2022/11/16 10:24:40;;;;;;;;;;;;;;;14.31;nan;100913.25;5022144;28;20516;-33
2022/11/16 10:27:14;;;;;;;;;;;;;;;14.34;nan;100910.81;5017754;28;19972;-34
2022/11/16 10:29:39;;;;;;;;;;;;;;;14.28;nan;100913.78;5020424;28;19917;-34
2022/11/16 10:32:15;;;;;;;;;;;;;;;14.30;nan;100912.44;5019180;28;19931;-34
2022/11/16 10:34:53;;;;;;;;;;;;;;;14.31;nan;100905.16;5015076;28;20206;-34
2022/11/16 10:37:19;;;;;;;;;;;;;;;14.37;nan;100917.59;5019771;28;19917;-33
2022/11/16 10:39:46;;;;;;;;;;;;;;;14.37;nan;100899.53;5018598;28;19925;-34
2022/11/16 10:42:15;;;;;;;;;;;;;;;14.32;nan;100901.38;5020469;28;19924;-33
2022/11/16 10:44:43;;;;;;;;;;;;;;;14.32;nan;100904.91;5018956;28;20157;-34
2022/11/16 10:47:15;;;;;;;;;;;;;;;14.31;nan;100894.38;5020202;28;19928;-33
2022/11/16 10:50:01;;;;;;;;;;;;;;;14.30;nan;100898.16;5020710;28;20007;-34
2022/11/16 10:52:26;;;;;;;;;;;;;;;14.26;nan;100889.00;5015251;28;20400;-33
2022/11/16 10:54:52;;;;;;;;;;;;;;;14.13;nan;100872.28;5018900;28;19924;-33
2022/11/16 10:57:17;;;;;;;;;;;;;;;14.18;nan;100875.00;5021563;28;19917;-33
2022/11/16 10:59:47;;;;;;;;;;;;;;;14.26;nan;100878.22;5017566;28;19917;-34
2022/11/16 11:02:27;;;;;;;;;;;;;;;14.35;nan;100874.69;5019895;28;19932;-33
2022/11/16 11:05:02;;;;;;;;;;;;;;;14.39;nan;100870.41;5018215;28;19921;-33
2022/11/16 11:07:36;;;;;;;;;;;;;;;14.44;nan;100866.94;5021060;28;19921;-34
2022/11/16 11:10:02;;;;;;;;;;;;;;;14.39;nan;100870.41;5018083;28;19926;-33
2022/11/16 11:12:36;;;;;;;;;;;;;;;14.29;nan;100870.41;5017125;28;19975;-33
2022/11/16 11:15:05;;;;;;;;;;;;;;;14.28;nan;100866.09;5019986;28;20358;-33
2022/11/16 11:17:31;;;;;;;;;;;;;;;14.35;nan;100855.84;5021018;28;20355;-33
2022/11/16 11:20:16;;;;;;;;;;;;;;;14.37;nan;100856.41;5016630;28;20223;-33
2022/11/16 11:22:52;;;;;;;;;;;;;;;14.44;nan;100848.06;5017838;28;19977;-33
2022/11/16 11:25:23;;;;;;;;;;;;;;;14.51;nan;100843.19;5015082;28;20564;-33
2022/11/16 11:27:49;;;;;;;;;;;;;;;14.55;nan;100852.38;5019941;28;19963;-33
2022/11/16 11:30:19;;;;;;;;;;;;;;;14.61;nan;100842.38;5013540;28;19936;-33
2022/11/16 11:32:45;;;;;;;;;;;;;;;14.62;nan;100844.00;5019710;28;19917;-33
2022/11/16 11:35:25;;;;;;;;;;;;;;;14.66;nan;100845.06;5018407;28;19928;-33
2022/11/16 11:37:52;;;;;;;;;;;;;;;14.68;nan;100835.59;5013780;28;19997;-34
2022/11/16 11:40:19;;;;;;;;;;;;;;;14.61;nan;100835.09;5006345;28;20524;-33
2022/11/16 11:43:05;;;;;;;;;;;;;;;14.67;nan;100828.59;5018553;28;20314;-34
2022/11/16 11:45:37;;;;;;;;;;;;;;;14.76;nan;100835.06;5020465;28;20036;-33
2022/11/16 11:48:06;;;;;;;;;;;;;;;14.88;nan;100828.53;5018877;28;20027;-33
2022/11/16 11:50:43;;;;;;;;;;;;;;;14.82;nan;100831.25;5025270;28;19921;-33
2022/11/16 11:53:20;;;;;;;;;;;;;;;14.67;nan;100828.59;5022989;28;19971;-34
2022/11/16 11:55:45;;;;;;;;;;;;;;;14.74;nan;100825.63;5020697;28;19925;-34
2022/11/16 11:58:15;;;;;;;;;;;;;;;14.69;nan;100826.44;5024731;28;20280;-33
2022/11/16 12:00:54;;;;;;;;;;;;;;;14.75;nan;100829.94;5016205;28;20398;-33
2022/11/16 12:03:29;;;;;;;;;;;;;;;14.75;nan;100828.06;5022413;28;19925;-33
2022/11/16 12:06:00;;;;;;;;;;;;;;;14.80;nan;100813.75;5022503;28;19924;-34
2022/11/16 12:08:28;;;;;;;;;;;;;;;14.78;nan;100819.41;5023007;28;20649;-33
2022/11/16 12:11:04;;;;;;;;;;;;;;;14.78;nan;100814.03;5021719;28;20350;-33
2022/11/16 12:13:49;;;;;;;;;;;;;;;14.74;nan;100823.75;5023228;28;19929;-33
2022/11/16 12:16:24;;;;;;;;;;;;;;;14.74;nan;100821.06;5020877;28;20350;-33
2022/11/16 12:18:55;;;;;;;;;;;;;;;14.70;nan;100822.66;5018193;28;19917;-33
2022/11/16 12:21:32;;;;;;;;;;;;;;;14.75;nan;100829.94;5019450;28;20003;-33
2022/11/16 12:24:08;;;;;;;;;;;;;;;14.68;nan;100816.72;5021540;28;19925;-33
2022/11/16 12:26:52;;;;;;;;;;;;;;;14.72;nan;100817.00;5021614;28;19918;-34
2022/11/16 12:29:23;;;;;;;;;;;;;;;14.71;nan;100818.88;5021143;28;19917;-34
2022/11/16 12:31:54;;;;;;;;;;;;;;;14.69;nan;100812.94;5022607;28;19921;-34
2022/11/16 12:34:28;;;;;;;;;;;;;;;14.73;nan;100811.34;5020569;28;19932;-33
2022/11/16 12:37:00;;;;;;;;;;;;;;;14.59;nan;100814.88;5021473;28;19917;-34
2022/11/16 12:39:25;;;;;;;;;;;;;;;14.63;nan;100818.63;5023267;28;20219;-34
2022/11/16 12:41:53;;;;;;;;;;;;;;;14.65;nan;100824.56;5020972;28;19917;-33
2022/11/16 12:44:39;;;;;;;;;;;;;;;14.74;nan;100826.44;5022186;28;19973;-33
2022/11/16 12:47:13;;;;;;;;;;;;;;;14.60;nan;100828.09;5015200;28;20276;-33
2022/11/16 12:49:38;;;;;;;;;;;;;;;14.65;nan;100829.97;5023862;28;19918;-34
2022/11/16 12:52:15;;;;;;;;;;;;;;;14.58;nan;100824.84;5023255;28;19936;-33
2022/11/16 12:55:07;;;;;;;;;;;;;;;14.57;nan;100827.84;5021315;28;19924;-33
2022/11/16 12:57:33;;;;;;;;;;;;;;;14.52;nan;100829.44;5021369;28;20387;-33
2022/11/16 13:00:09;;;;;;;;;;;;;;;14.53;nan;100830.25;5020559;28;20019;-33
2022/11/16 13:02:43;;;;;;;;;;;;;;;14.52;nan;100825.94;5022780;28;19917;-33
2022/11/16 13:05:21;;;;;;;;;;;;;;;14.42;nan;100832.13;5021337;28;20520;-34
2022/11/16 13:07:49;;;;;;;;;;;;;;;14.46;nan;100825.13;5021443;28;20374;-33
2022/11/16 13:10:14;;;;;;;;;;;;;;;14.50;nan;100822.69;5018834;28;19925;-33
2022/11/16 13:12:41;;;;;;;;;;;;;;;14.54;nan;100826.47;5038434;22;19936;-33
2022/11/16 13:15:17;;;;;;;;;;;;;;;14.57;nan;100820.56;5033207;28;19932;-33
2022/11/16 13:17:46;;;;;;;;;;;;;;;14.58;nan;100824.84;5033329;28;19923;-33
2022/11/16 13:20:31;;;;;;;;;;;;;;;14.63;nan;100816.75;5025813;28;19917;-33
2022/11/16 13:23:15;;;;;;;;;;;;;;;14.67;nan;100817.00;5024329;28;20203;-33
2022/11/16 13:25:59;;;;;;;;;;;;;;;14.62;nan;100820.53;5008259;28;19964;-34
2022/11/16 13:28:30;;;;;;;;;;;;;;;14.63;nan;100819.44;5007546;28;20301;-33
2022/11/16 13:31:02;;;;;;;;;;;;;;;14.51;nan;100808.13;5007803;28;19987;-33
2022/11/16 13:33:33;;;;;;;;;;;;;;;14.54;nan;100818.38;5007623;28;19975;-33
2022/11/16 13:36:19;;;;;;;;;;;;;;;14.50;nan;100814.63;5007437;28;19917;-33
2022/11/16 13:38:51;;;;;;;;;;;;;;;14.50;nan;100820.81;5006399;28;19944;-33
2022/11/16 13:41:29;;;;;;;;;;;;;;;14.49;nan;100813.81;5006166;28;19921;-33
2022/11/16 13:43:54;;;;;;;;;;;;;;;14.53;nan;100824.84;5007070;28;19924;-34
2022/11/16 13:46:20;;;;;;;;;;;;;;;14.35;nan;100823.50;5007768;28;20008;-33
2022/11/16 13:48:45;;;;;;;;;;;;;;;14.41;nan;100818.91;5007436;28;20399;-33
2022/11/16 13:51:18;;;;;;;;;;;;;;;14.43;nan;100812.22;5005777;28;19925;-33